Time;durP1;ratioP1;P1;durP2;ratioP2;P2;SDS_P1;SDS_P2;PMS_P1;PMS_P2;Temp;Humidity;BMP_temperature;BMP_pressure;BME280_temperature;BME280_humidity;BME280_pressure;Samples;Min_cycle;Max_cycle;Signal;HPM_P1;HPM_P2
2021/06/26 00:02:38;;;;;;;10.97;9.77;;;;;;;17.97;70.82;100167.39;153933;1101;103508;-78
2021/06/26 00:05:41;;;;;;;12.93;10.03;;;;;;;17.90;70.92;100168.41;154062;1101;103153;-76
2021/06/26 00:08:44;;;;;;;15.20;10.67;;;;;;;17.89;71.02;100164.89;153994;1101;103521;-75
2021/06/26 00:11:49;;;;;;;12.63;10.43;;;;;;;17.89;70.96;100159.48;154023;1096;103144;-75
2021/06/26 00:14:52;;;;;;;11.90;10.70;;;;;;;17.84;71.27;100161.95;154019;1096;103224;-77
2021/06/26 00:17:55;;;;;;;13.00;10.45;;;;;;;17.77;71.64;100158.39;153968;1101;103123;-77
2021/06/26 00:20:58;;;;;;;11.97;9.73;;;;;;;17.73;72.25;100167.93;154141;1095;103255;-76
2021/06/26 00:24:02;;;;;;;11.63;9.77;;;;;;;17.69;71.66;100185.53;154396;1096;103224;-77
2021/06/26 00:27:07;;;;;;;12.97;10.00;;;;;;;17.69;71.74;100190.93;155413;1101;103033;-76
2021/06/26 00:30:12;;;;;;;11.20;10.00;;;;;;;17.70;71.77;100201.53;154958;1096;103144;-77
2021/06/26 00:33:15;;;;;;;12.87;9.67;;;;;;;17.72;72.00;100209.43;154192;1096;103195;-76
2021/06/26 00:36:18;;;;;;;10.37;9.27;;;;;;;17.72;71.80;100207.55;154148;1096;103154;-77
2021/06/26 00:39:21;;;;;;;10.83;9.73;;;;;;;17.72;71.73;100214.83;154013;1101;104555;-78
2021/06/26 00:42:24;;;;;;;12.77;9.43;;;;;;;17.70;71.88;100209.63;153976;1096;103099;-77
2021/06/26 00:45:27;;;;;;;11.57;10.37;;;;;;;17.71;71.93;100211.30;153928;1096;103142;-78
2021/06/26 00:48:30;;;;;;;14.10;10.20;;;;;;;17.70;71.88;100219.59;154003;1101;103138;-78
2021/06/26 00:51:33;;;;;;;10.83;9.83;;;;;;;17.65;71.90;100223.73;153974;1101;103139;-78
2021/06/26 00:54:37;;;;;;;9.17;8.30;;;;;;;17.66;71.87;100235.34;153990;1101;103286;-78
2021/06/26 00:57:43;;;;;;;10.57;9.47;;;;;;;17.69;71.82;100232.27;153993;1101;103223;-78
2021/06/26 01:00:46;;;;;;;12.23;9.57;;;;;;;17.73;71.99;100235.40;154477;1101;103180;-76
2021/06/26 01:03:49;;;;;;;11.35;9.68;;;;;;;17.73;72.09;100248.89;153987;1096;103261;-77
2021/06/26 01:06:52;;;;;;;11.97;9.83;;;;;;;17.77;72.08;100259.08;153965;1101;104446;-75
2021/06/26 01:09:55;;;;;;;10.07;8.40;;;;;;;17.82;72.09;100258.46;154026;1094;103181;-75
2021/06/26 01:12:58;;;;;;;8.50;7.60;;;;;;;17.91;72.08;100257.30;154004;1101;103173;-76
2021/06/26 01:16:01;;;;;;;10.13;8.57;;;;;;;18.02;72.00;100261.30;154348;1096;103268;-77
2021/06/26 01:19:04;;;;;;;11.17;9.63;;;;;;;18.09;71.96;100262.16;154255;1096;103099;-77
2021/06/26 01:22:07;;;;;;;11.33;9.90;;;;;;;18.04;71.62;100270.02;154463;1101;103103;-77
2021/06/26 01:25:12;;;;;;;11.47;10.37;;;;;;;17.97;71.99;100255.66;154129;1096;103232;-78
2021/06/26 01:28:15;;;;;;;10.50;8.33;;;;;;;17.91;72.25;100253.77;154044;1096;103253;-77
2021/06/26 01:31:18;;;;;;;9.45;8.45;;;;;;;17.97;72.27;100252.95;153958;1101;103227;-77
2021/06/26 01:34:21;;;;;;;10.63;9.17;;;;;;;18.01;72.29;100244.27;153932;1101;103150;-77
2021/06/26 01:37:24;;;;;;;11.33;10.07;;;;;;;17.99;71.97;100243.61;154032;1096;103219;-78
2021/06/26 01:40:29;;;;;;;14.20;11.10;;;;;;;17.92;72.30;100237.38;154917;1096;103279;-75
2021/06/26 01:43:32;;;;;;;14.20;12.10;;;;;;;17.86;72.45;100235.48;154014;1096;103107;-77
2021/06/26 01:46:38;;;;;;;10.00;8.97;;;;;;;17.84;72.47;100240.23;154000;1096;103224;-77
2021/06/26 01:49:41;;;;;;;9.33;8.43;;;;;;;17.94;72.71;100237.19;153957;1101;103467;-77
2021/06/26 01:52:45;;;;;;;11.23;9.20;;;;;;;18.02;72.43;100232.42;153917;1096;103136;-76
2021/06/26 01:55:51;;;;;;;13.40;11.00;;;;;;;18.04;72.72;100238.45;154052;1101;103247;-76
2021/06/26 01:58:54;;;;;;;11.03;9.87;;;;;;;18.05;72.55;100237.43;153951;1101;103152;-77
2021/06/26 02:01:57;;;;;;;11.77;10.57;;;;;;;18.08;72.36;100240.75;153987;1096;103147;-76
2021/06/26 02:05:00;;;;;;;10.17;9.07;;;;;;;18.02;72.44;100251.32;154022;1096;103155;-74
2021/06/26 02:08:04;;;;;;;10.60;9.00;;;;;;;18.10;72.53;100257.59;154016;1101;103223;-76
2021/06/26 02:11:07;;;;;;;12.53;9.43;;;;;;;18.17;72.47;100242.25;153961;1095;103257;-77
2021/06/26 02:14:11;;;;;;;11.00;9.50;;;;;;;18.19;72.34;100238.30;154037;1096;103170;-78
2021/06/26 02:17:14;;;;;;;12.13;10.33;;;;;;;18.10;72.91;100227.88;154037;1101;103221;-78
2021/06/26 02:20:17;;;;;;;13.90;10.80;;;;;;;17.99;72.68;100222.02;154081;1101;103151;-78
2021/06/26 02:23:20;;;;;;;13.37;10.43;;;;;;;17.91;72.88;100221.38;153996;1101;103132;-77
2021/06/26 02:26:23;;;;;;;10.83;9.63;;;;;;;17.87;73.02;100225.52;153919;1101;103258;-76
2021/06/26 02:29:26;;;;;;;13.03;9.40;;;;;;;17.83;73.03;100216.95;153993;1096;103099;-77
2021/06/26 02:32:29;;;;;;;11.73;10.57;;;;;;;17.80;73.19;100214.65;153964;1101;103103;-79
2021/06/26 02:35:32;;;;;;;12.87;10.93;;;;;;;17.75;73.38;100209.87;153959;1096;103113;-76
2021/06/26 02:38:35;;;;;;;13.90;10.83;;;;;;;17.68;73.54;100218.97;153976;1101;103217;-77
2021/06/26 02:41:38;;;;;;;11.35;9.70;;;;;;;17.61;73.35;100217.08;153996;1101;103281;-79
2021/06/26 02:44:41;;;;;;;12.70;10.00;;;;;;;17.58;73.61;100211.23;154074;1096;103227;-79
2021/06/26 02:47:44;;;;;;;10.77;9.00;;;;;;;17.57;73.64;100215.81;154106;1101;103169;-79
2021/06/26 02:50:47;;;;;;;14.50;10.27;;;;;;;17.56;73.93;100219.53;153973;1095;103160;-79
2021/06/26 02:53:50;;;;;;;12.80;10.20;;;;;;;17.52;73.92;100220.97;153985;1095;103116;-80
2021/06/26 02:56:52;;;;;;;11.17;9.93;;;;;;;17.48;74.11;100222.40;154049;1101;103211;-78
2021/06/26 02:59:56;;;;;;;11.43;9.03;;;;;;;17.47;73.96;100220.72;154073;1096;103154;-79
2021/06/26 03:02:59;;;;;;;12.20;9.73;;;;;;;17.52;74.34;100223.66;153958;1101;103139;-77
2021/06/26 03:06:02;;;;;;;11.40;9.53;;;;;;;17.56;74.28;100222.23;153973;1096;103142;-79
2021/06/26 03:09:05;;;;;;;13.60;10.47;;;;;;;17.60;74.41;100220.79;153970;1094;103217;-78
2021/06/26 03:12:10;;;;;;;13.97;10.20;;;;;;;17.62;74.25;100228.69;154189;1101;103192;-81
2021/06/26 03:15:15;;;;;;;11.50;9.45;;;;;;;17.61;74.22;100217.08;154106;1096;103220;-82
2021/06/26 03:18:18;;;;;;;10.53;8.53;;;;;;;17.71;74.12;100215.88;154103;1094;103221;-83
2021/06/26 03:21:20;;;;;;;13.15;10.15;;;;;;;17.87;74.03;100218.24;154071;1096;103150;-83
2021/06/26 03:24:23;;;;;;;12.27;9.80;;;;;;;18.09;74.36;100220.80;154205;1101;103142;-81
2021/06/26 03:27:26;;;;;;;13.87;10.47;;;;;;;18.21;74.14;100228.13;154166;1096;103263;-79
2021/06/26 03:30:29;;;;;;;14.17;9.63;;;;;;;18.38;73.62;100225.88;154366;1096;103189;-81
2021/06/26 03:33:32;;;;;;;10.47;9.37;;;;;;;18.55;73.46;100231.73;154377;1096;103123;-84
2021/06/26 03:36:35;;;;;;;11.13;9.73;;;;;;;18.78;73.35;100225.07;153993;1096;103140;-82
2021/06/26 03:39:38;;;;;;;13.23;9.53;;;;;;;18.99;73.26;100234.88;154152;1101;103225;-83
2021/06/26 03:42:41;;;;;;;10.03;9.13;;;;;;;19.21;73.12;100232.79;154130;1101;103190;-81
2021/06/26 03:45:44;;;;;;;12.77;9.90;;;;;;;19.29;72.67;100235.27;154153;1101;103135;-80
2021/06/26 03:48:47;;;;;;;13.37;9.47;;;;;;;19.37;72.74;100242.33;154338;1095;103144;-79
2021/06/26 03:51:50;;;;;;;11.60;9.25;;;;;;;19.51;72.79;100238.53;154091;1095;103540;-80
2021/06/26 03:54:53;;;;;;;12.00;9.27;;;;;;;19.65;72.52;100250.18;154108;1096;103225;-80
2021/06/26 03:57:56;;;;;;;12.20;9.63;;;;;;;19.86;72.49;100256.38;154112;1101;103266;-81
2021/06/26 04:00:59;;;;;;;11.97;9.40;;;;;;;19.90;71.76;100255.75;154114;1101;103697;-78
2021/06/26 04:04:02;;;;;;;10.50;9.23;;;;;;;19.85;71.94;100263.67;153971;1101;103189;-78
2021/06/26 04:07:06;;;;;;;11.53;9.23;;;;;;;19.84;72.06;100275.53;154005;1101;103221;-77
2021/06/26 04:10:11;;;;;;;12.50;8.80;;;;;;;19.90;72.26;100277.41;154039;1101;103123;-78
2021/06/26 04:13:14;;;;;;;10.43;8.77;;;;;;;20.17;72.01;100271.88;153973;1101;103400;-80
2021/06/26 04:16:17;;;;;;;16.20;8.30;;;;;;;20.38;71.83;100276.98;154224;1101;103153;-79
2021/06/26 04:19:20;;;;;;;10.50;9.30;;;;;;;20.52;71.10;100282.33;154216;1101;103121;-81
2021/06/26 04:22:23;;;;;;;9.83;8.83;;;;;;;20.57;71.23;100277.05;154188;1096;103314;-79
2021/06/26 04:25:27;;;;;;;10.33;9.23;;;;;;;20.48;71.20;100281.92;154243;1096;103128;-77
2021/06/26 04:28:30;;;;;;;11.63;8.87;;;;;;;20.44;71.18;100282.55;153946;1101;103189;-77
2021/06/26 04:31:33;;;;;;;11.45;8.70;;;;;;;20.40;71.09;100288.43;153929;1101;103135;-79
2021/06/26 04:34:36;;;;;;;9.87;8.87;;;;;;;20.45;71.28;100276.92;153955;1096;103221;-78
2021/06/26 04:37:39;;;;;;;10.53;8.83;;;;;;;20.60;70.90;100290.22;153941;1096;103218;-78
2021/06/26 04:40:42;;;;;;;9.93;8.10;;;;;;;20.79;71.39;100289.25;153967;1101;103220;-77
2021/06/26 04:43:45;;;;;;;10.23;8.70;;;;;;;21.20;70.82;100291.66;153962;1101;103308;-77
2021/06/26 04:46:47;;;;;;;11.00;9.10;;;;;;;21.45;69.08;100287.05;154118;1101;103688;-79
2021/06/26 04:49:50;;;;;;;9.97;8.73;;;;;;;21.59;69.71;100293.17;154105;1101;103227;-81
2021/06/26 04:52:53;;;;;;;9.53;8.60;;;;;;;21.75;69.50;100287.16;154048;1101;103227;-78
2021/06/26 04:55:56;;;;;;;9.85;7.90;;;;;;;21.84;68.51;100295.82;154069;1096;103335;-81
2021/06/26 04:58:59;;;;;;;10.97;8.33;;;;;;;21.99;68.61;100290.02;154024;1101;103297;-79
2021/06/26 05:02:03;;;;;;;9.80;8.07;;;;;;;22.17;68.32;100289.16;154065;1096;103128;-78
2021/06/26 05:05:08;;;;;;;10.20;8.37;;;;;;;22.35;65.81;100289.16;154027;1101;103131;-76
2021/06/26 05:08:11;;;;;;;8.20;7.43;;;;;;;22.33;68.77;100288.56;153968;1096;103220;-77
2021/06/26 05:11:14;;;;;;;11.77;8.30;;;;;;;22.33;67.79;100299.44;154004;1101;103223;-80
2021/06/26 05:14:17;;;;;;;8.80;8.00;;;;;;;22.19;66.17;100303.38;154276;1096;103172;-79
2021/06/26 05:17:20;;;;;;;8.63;7.73;;;;;;;21.99;67.68;100305.49;154246;1101;103551;-80
2021/06/26 05:20:23;;;;;;;9.70;7.63;;;;;;;21.80;67.71;100304.66;154160;1101;103227;-77
2021/06/26 05:23:27;;;;;;;10.53;7.93;;;;;;;21.45;67.41;100308.77;153969;1097;103194;-79
2021/06/26 05:26:30;;;;;;;10.30;8.00;;;;;;;21.09;68.49;100307.58;153979;1101;103137;-79
2021/06/26 05:29:35;;;;;;;8.90;7.93;;;;;;;21.02;67.89;100314.97;153959;1096;103291;-78
2021/06/26 05:32:40;;;;;;;8.60;7.70;;;;;;;20.83;68.76;100305.92;154427;1101;103193;-78
2021/06/26 05:35:45;;;;;;;11.50;8.10;;;;;;;20.77;68.37;100304.09;154551;1095;103579;-77
2021/06/26 05:38:48;;;;;;;14.70;7.95;;;;;;;20.78;68.83;100303.88;154300;1096;103114;-78
2021/06/26 05:41:51;;;;;;;10.50;7.80;;;;;;;20.91;68.62;100291.26;154194;1101;103169;-77
2021/06/26 05:44:54;;;;;;;9.05;8.20;;;;;;;20.94;68.56;100293.55;154324;1101;103179;-78
2021/06/26 05:47:57;;;;;;;9.20;8.20;;;;;;;20.91;68.44;100291.26;154293;1096;103195;-77
2021/06/26 05:50:59;;;;;;;10.10;8.53;;;;;;;;;;154178;1097;103184;-77
2021/06/26 05:54:02;;;;;;;9.63;8.07;;;;;;;20.91;68.80;100302.93;154277;1095;103560;-74
2021/06/26 05:57:07;;;;;;;11.30;8.13;;;;;;;21.03;68.39;100303.05;154097;1101;103215;-76
2021/06/26 06:00:14;;;;;;;10.05;8.20;;;;;;;21.02;68.39;100295.98;154184;1101;103490;-74
2021/06/26 06:03:17;;;;;;;8.97;8.03;;;;;;;21.06;68.47;100297.19;154153;1097;103149;-75
2021/06/26 06:06:20;;;;;;;8.93;7.73;;;;;;;21.22;68.36;100287.66;154543;1101;103216;-74
2021/06/26 06:09:23;;;;;;;9.80;8.33;;;;;;;21.37;68.50;100288.14;154303;1101;103688;-79
2021/06/26 06:12:26;;;;;;;10.60;8.83;;;;;;;21.48;67.88;100286.62;154614;1096;103223;-79
2021/06/26 06:15:29;;;;;;;12.07;9.50;;;;;;;21.48;68.13;100283.91;154295;1101;103260;-79
2021/06/26 06:18:31;;;;;;;11.30;9.20;;;;;;;21.48;68.02;100281.19;154296;1101;103159;-78
2021/06/26 06:21:34;;;;;;;13.90;9.37;;;;;;;21.61;67.92;100295.67;154089;1101;103224;-79
2021/06/26 06:24:37;;;;;;;9.90;8.80;;;;;;;21.55;67.96;100295.50;154004;1101;103169;-78
2021/06/26 06:27:41;;;;;;;10.85;8.10;;;;;;;21.67;67.78;100306.48;154178;1096;103147;-78
2021/06/26 06:30:44;;;;;;;11.28;8.50;;;;;;;21.64;67.80;100306.09;154289;1101;103195;-76
2021/06/26 06:33:47;;;;;;;11.47;9.33;;;;;;;21.56;67.92;100308.04;154304;1101;103051;-79
2021/06/26 06:36:50;;;;;;;10.33;9.17;;;;;;;21.40;67.81;100308.56;154001;1101;103113;-80
2021/06/26 06:39:53;;;;;;;11.03;9.93;;;;;;;21.28;68.02;100304.94;154069;1096;103147;-76
2021/06/26 06:42:56;;;;;;;10.83;9.27;;;;;;;21.26;68.38;100305.15;154010;1094;103123;-78
2021/06/26 06:45:59;;;;;;;14.23;8.80;;;;;;;21.28;68.71;100302.22;153994;1101;103222;-76
2021/06/26 06:49:02;;;;;;;10.10;8.87;;;;;;;21.26;68.49;100301.61;154095;1096;103222;-77
2021/06/26 06:52:07;;;;;;;9.83;8.40;;;;;;;21.29;68.38;100303.89;154770;1101;103151;-77
2021/06/26 06:55:10;;;;;;;10.30;8.35;;;;;;;21.32;68.39;100304.25;154204;1101;103198;-78
2021/06/26 06:58:13;;;;;;;10.60;8.50;;;;;;;21.50;68.57;100316.27;154088;1096;103212;-78
2021/06/26 07:01:17;;;;;;;9.13;8.23;;;;;;;21.62;68.03;100319.89;154352;1096;103122;-79
2021/06/26 07:04:20;;;;;;;8.73;7.63;;;;;;;21.69;67.97;100314.38;154114;1101;103111;-78
2021/06/26 07:07:23;;;;;;;10.43;9.07;;;;;;;21.69;67.25;100317.94;154035;1101;103279;-77
2021/06/26 07:10:26;;;;;;;11.00;8.85;;;;;;;21.73;67.76;100321.05;154155;1097;103144;-79
2021/06/26 07:13:29;;;;;;;9.73;8.17;;;;;;;21.81;67.79;100315.30;154219;1101;103194;-77
2021/06/26 07:16:32;;;;;;;8.60;7.40;;;;;;;21.96;67.09;100321.20;154127;1095;103549;-79
2021/06/26 07:19:36;;;;;;;8.90;8.00;;;;;;;22.03;67.30;100321.11;154030;1095;103128;-80
2021/06/26 07:22:39;;;;;;;10.67;7.67;;;;;;;21.97;66.54;100332.88;154036;1101;103272;-80
2021/06/26 07:25:42;;;;;;;8.80;7.93;;;;;;;21.87;67.23;100336.13;154018;1101;103246;-80
2021/06/26 07:28:45;;;;;;;8.87;7.97;;;;;;;21.91;66.39;100329.19;154166;1101;103483;-82
2021/06/26 07:31:48;;;;;;;9.00;7.63;;;;;;;21.91;66.88;100326.47;154111;1097;103220;-80
2021/06/26 07:34:51;;;;;;;8.70;7.80;;;;;;;21.93;67.25;100323.53;154124;1101;103144;-80
2021/06/26 07:37:54;;;;;;;8.03;7.17;;;;;;;21.94;66.69;100330.61;154184;1094;103131;-78
2021/06/26 07:40:57;;;;;;;8.87;7.27;;;;;;;21.99;66.46;100330.77;154168;1096;103151;-77
2021/06/26 07:44:00;;;;;;;8.90;6.90;;;;;;;22.13;66.54;100318.70;154259;1101;103096;-80
2021/06/26 07:47:04;;;;;;;8.90;6.33;;;;;;;22.25;66.41;100328.81;154262;1101;103176;-77
2021/06/26 07:50:08;;;;;;;7.80;6.83;;;;;;;22.36;65.63;100314.45;154124;1097;103468;-80
2021/06/26 07:53:11;;;;;;;7.20;6.55;;;;;;;22.55;66.11;100318.78;154104;1097;103132;-76
2021/06/26 07:56:14;;;;;;;6.70;6.03;;;;;;;22.71;64.94;100320.05;153970;1101;103140;-76
2021/06/26 07:59:17;;;;;;;7.57;5.90;;;;;;;22.81;65.27;100315.94;153992;1101;103215;-76
2021/06/26 08:02:20;;;;;;;5.73;5.13;;;;;;;22.92;64.49;100320.55;154087;1096;103289;-80
2021/06/26 08:05:23;;;;;;;7.73;5.53;;;;;;;22.94;64.29;100322.00;154032;1101;103144;-77
2021/06/26 08:08:26;;;;;;;6.03;5.37;;;;;;;23.02;64.14;100317.27;153963;1097;103168;-77
2021/06/26 08:11:29;;;;;;;6.83;5.73;;;;;;;22.99;64.62;100326.73;153978;1095;103248;-76
2021/06/26 08:14:32;;;;;;;5.47;4.90;;;;;;;23.05;65.03;100328.55;153943;1101;103214;-75
2021/06/26 08:17:34;;;;;;;7.10;5.10;;;;;;;23.05;63.30;100320.38;153989;1097;103215;-75
2021/06/26 08:20:38;;;;;;;5.90;4.85;;;;;;;22.95;63.58;100322.83;153988;1097;103194;-76
2021/06/26 08:23:41;;;;;;;6.60;5.95;;;;;;;22.82;62.20;100321.13;153965;1097;103144;-79
2021/06/26 08:26:44;;;;;;;6.40;5.80;;;;;;;22.74;63.79;100324.19;154003;1095;103224;-78
2021/06/26 08:29:47;;;;;;;6.40;5.80;;;;;;;22.67;63.41;100323.44;153989;1096;103285;-79
2021/06/26 08:32:51;;;;;;;8.57;6.90;;;;;;;22.63;63.98;100314.91;154147;1101;103349;-80
2021/06/26 08:35:54;;;;;;;7.00;6.20;;;;;;;22.63;64.10;100319.53;153942;1097;103697;-78
2021/06/26 08:38:57;;;;;;;8.50;6.53;;;;;;;22.62;63.71;100321.43;154017;1096;103138;-79
2021/06/26 08:42:00;;;;;;;8.00;6.20;;;;;;;22.50;63.33;100326.01;154103;1095;103220;-77
2021/06/26 08:45:06;;;;;;;8.40;6.70;;;;;;;22.45;63.28;100325.85;153968;1096;103164;-76
2021/06/26 08:48:10;;;;;;;6.70;5.77;;;;;;;22.60;63.85;100309.95;153975;1096;103217;-76
2021/06/26 08:51:13;;;;;;;6.37;5.70;;;;;;;23.01;62.46;100311.00;154025;1095;103131;-78
2021/06/26 08:54:17;;;;;;;8.20;5.77;;;;;;;23.52;62.34;100301.37;154021;1097;103133;-79
2021/06/26 08:57:28;;;;;;;5.75;5.15;;;;;;;24.12;62.86;100302.13;153946;1101;103211;-78
2021/06/26 09:00:32;;;;;;;6.17;5.00;;;;;;;24.29;60.14;100310.38;154068;1101;103195;-76
2021/06/26 09:03:34;;;;;;;4.60;4.20;;;;;;;24.15;60.21;100304.35;154018;1101;103279;-79
2021/06/26 09:06:49;;;;;;;5.77;3.70;;;;;;;23.90;57.41;100308.23;154076;1101;103223;-79
2021/06/26 09:09:55;;;;;;;5.80;3.87;;;;;;;23.63;60.61;100310.58;153961;1097;103490;-77
2021/06/26 09:12:58;;;;;;;3.57;3.27;;;;;;;23.50;60.92;100303.50;153909;1101;103100;-77
2021/06/26 09:16:11;;;;;;;4.73;4.00;;;;;;;23.39;60.31;100309.77;154035;1101;103238;-79
2021/06/26 09:19:13;;;;;;;4.67;4.00;;;;;;;23.20;60.07;100302.78;154010;1097;103496;-79
2021/06/26 09:22:16;;;;;;;5.13;4.03;;;;;;;23.05;60.22;100300.51;154000;1094;103153;-77
2021/06/26 09:25:29;;;;;;;5.70;4.13;;;;;;;22.88;57.62;100311.20;154016;1097;103583;-79
2021/06/26 09:28:32;;;;;;;3.90;3.57;;;;;;;22.97;58.47;100295.38;153950;1097;103096;-76
2021/06/26 09:31:35;;;;;;;4.73;3.50;;;;;;;23.14;58.13;100299.11;153933;1096;103230;-78
2021/06/26 09:34:41;;;;;;;4.50;3.80;;;;;;;23.30;56.95;100289.41;153939;1095;103185;-77
2021/06/26 09:37:44;;;;;;;4.87;3.57;;;;;;;23.38;58.09;100293.66;154000;1101;103221;-79
2021/06/26 09:40:47;;;;;;;4.45;3.45;;;;;;;23.41;54.95;100293.20;153912;1097;103141;-79
2021/06/26 09:43:50;;;;;;;4.25;3.60;;;;;;;23.65;56.98;100285.83;154176;1101;103224;-78
2021/06/26 09:46:53;;;;;;;4.97;3.90;;;;;;;23.80;54.74;100290.83;154074;1101;103145;-78
2021/06/26 09:50:08;;;;;;;4.50;3.83;;;;;;;23.93;57.40;100276.94;153954;1101;103492;-80
2021/06/26 09:53:10;;;;;;;4.67;3.63;;;;;;;24.01;53.44;100282.00;154085;1096;103139;-76
2021/06/26 09:56:13;;;;;;;5.03;3.40;;;;;;;24.08;56.49;100277.25;153941;1096;103152;-76
2021/06/26 09:59:17;;;;;;;5.50;3.70;;;;;;;24.30;54.63;100280.11;155761;1101;103497;-76
2021/06/26 10:02:22;;;;;;;4.37;3.50;;;;;;;24.34;56.06;100275.01;154481;1101;103198;-74
2021/06/26 10:05:26;;;;;;;3.80;3.00;;;;;;;24.26;54.99;100284.41;154047;1094;103266;-81
2021/06/26 10:08:30;;;;;;;3.73;3.10;;;;;;;24.26;53.37;100284.41;154038;1095;103107;-76
2021/06/26 10:11:35;;;;;;;3.60;3.05;;;;;;;24.32;54.79;100279.06;154001;1095;103226;-74
2021/06/26 10:14:40;;;;;;;4.47;3.37;;;;;;;24.37;54.45;100285.44;154087;1101;103225;-76
2021/06/26 10:17:44;;;;;;;4.65;3.10;;;;;;;24.45;51.57;100274.13;154107;1101;103150;-74
2021/06/26 10:20:48;;;;;;;3.87;3.20;;;;;;;24.68;54.65;100277.84;154064;1101;103174;-76
2021/06/26 10:23:54;;;;;;;3.53;2.90;;;;;;;24.81;54.52;100268.53;154120;1101;103205;-76
2021/06/26 10:26:57;;;;;;;4.10;3.10;;;;;;;24.66;52.16;100271.81;154005;1101;103145;-75
2021/06/26 10:30:14;;;;;;;3.97;3.17;;;;;;;24.49;52.36;100269.02;154010;1095;103219;-75
2021/06/26 10:33:26;;;;;;;4.87;3.20;;;;;;;24.35;52.92;100271.22;154026;1096;103262;-75
2021/06/26 10:36:33;;;;;;;4.83;3.57;;;;;;;24.21;53.98;100284.33;154020;1097;103147;-75
2021/06/26 10:39:36;;;;;;;3.60;3.03;;;;;;;24.19;53.98;100281.02;153996;1095;103173;-76
2021/06/26 10:42:41;;;;;;;3.37;3.07;;;;;;;24.22;53.09;100282.42;153996;1096;103143;-76
2021/06/26 10:45:45;;;;;;;3.97;3.00;;;;;;;24.20;53.45;100285.38;153981;1101;103142;-76
2021/06/26 10:48:58;;;;;;;3.30;3.00;;;;;;;24.24;54.50;100274.82;154016;1097;103122;-75
2021/06/26 10:52:10;;;;;;;4.20;3.10;;;;;;;24.20;52.87;100269.02;154052;1096;103251;-75
2021/06/26 10:55:24;;;;;;;3.10;2.73;;;;;;;24.13;53.07;100273.78;154010;1097;103144;-76
2021/06/26 10:58:33;;;;;;;4.93;2.70;;;;;;;24.03;52.88;100270.86;153935;1101;103134;-75
2021/06/26 11:01:36;;;;;;;3.50;2.90;;;;;;;24.13;51.37;100278.41;153928;1101;103133;-76
2021/06/26 11:04:46;;;;;;;3.30;2.70;;;;;;;24.27;53.04;100268.89;154146;1095;103173;-76
2021/06/26 11:07:49;;;;;;;2.80;2.60;;;;;;;24.22;51.98;100275.06;153994;1096;103139;-75
2021/06/26 11:10:56;;;;;;;3.73;2.83;;;;;;;24.16;50.82;100270.59;154000;1101;103508;-75
2021/06/26 11:14:15;;;;;;;3.40;3.10;;;;;;;24.10;52.23;100264.20;153962;1101;103375;-75
2021/06/26 11:17:21;;;;;;;2.97;2.67;;;;;;;24.09;52.16;100257.08;154012;1101;103266;-76
2021/06/26 11:20:25;;;;;;;3.90;2.93;;;;;;;24.15;50.25;100260.73;154018;1096;103150;-75
2021/06/26 11:23:28;;;;;;;4.57;3.13;;;;;;;24.21;50.87;100253.48;153993;1101;103224;-76
2021/06/26 11:26:31;;;;;;;3.55;3.25;;;;;;;24.27;50.99;100256.08;154013;1101;103153;-76
2021/06/26 11:29:37;;;;;;;4.97;4.57;;;;;;;24.46;49.16;100243.07;153974;1101;103222;-76
2021/06/26 11:32:40;;;;;;;5.40;4.90;;;;;;;24.67;49.32;100251.63;154144;1095;103157;-77
2021/06/26 11:35:44;;;;;;;5.30;4.80;;;;;;;24.84;49.93;100248.91;154005;1097;103195;-76
2021/06/26 11:38:54;;;;;;;5.27;4.77;;;;;;;24.99;50.25;100243.70;153952;1101;103717;-74
2021/06/26 11:41:57;;;;;;;6.40;5.07;;;;;;;24.92;47.42;100243.03;153986;1096;103232;-73
2021/06/26 11:45:10;;;;;;;5.33;4.93;;;;;;;25.12;48.78;100252.64;153992;1096;103142;-73
2021/06/26 11:48:14;;;;;;;5.87;5.37;;;;;;;25.28;48.86;100241.70;153997;1095;103103;-73
2021/06/26 11:51:17;;;;;;;6.10;5.60;;;;;;;25.39;49.97;100245.42;153968;1096;103233;-73
2021/06/26 11:54:20;;;;;;;5.70;5.20;;;;;;;25.42;46.86;100246.81;153928;1096;103222;-74
2021/06/26 11:57:30;;;;;;;5.30;4.90;;;;;;;25.34;49.35;100239.88;154051;1101;103231;-73
2021/06/26 12:00:33;;;;;;;6.20;5.60;;;;;;;24.98;46.32;100250.25;154049;1101;103107;-74
2021/06/26 12:03:38;;;;;;;5.27;4.80;;;;;;;24.69;50.02;100239.41;154031;1096;103607;-72
2021/06/26 12:06:41;;;;;;;5.20;4.60;;;;;;;24.54;48.49;100244.60;154037;1101;103473;-73
2021/06/26 12:09:44;;;;;;;5.83;4.57;;;;;;;24.46;48.55;100242.22;153963;1101;103227;-73
2021/06/26 12:12:47;;;;;;;5.57;4.80;;;;;;;24.68;49.28;100231.46;154031;1101;103142;-74
2021/06/26 12:15:50;;;;;;;5.43;4.03;;;;;;;24.77;47.02;100235.45;153942;1101;103367;-75
2021/06/26 12:18:55;;;;;;;4.65;4.10;;;;;;;24.66;47.24;100234.44;153973;1101;103234;-74
2021/06/26 12:21:59;;;;;;;4.23;3.83;;;;;;;24.53;46.28;100234.75;153969;1097;103136;-74
2021/06/26 12:25:13;;;;;;;4.70;4.00;;;;;;;24.57;48.92;100229.63;154003;1101;103422;-73
2021/06/26 12:28:16;;;;;;;6.23;4.30;;;;;;;24.69;47.91;100223.03;154022;1095;103151;-72
2021/06/26 12:31:20;;;;;;;4.77;3.93;;;;;;;24.83;47.77;100209.06;153991;1096;103221;-72
2021/06/26 12:34:23;;;;;;;4.50;4.07;;;;;;;24.92;46.66;100214.92;153990;1095;103220;-75
2021/06/26 12:37:33;;;;;;;3.90;3.50;;;;;;;25.01;47.31;100207.97;153934;1095;103192;-72
2021/06/26 12:40:41;;;;;;;6.63;3.53;;;;;;;25.00;45.19;100212.61;153978;1101;103537;-73
2021/06/26 12:43:44;;;;;;;5.77;3.70;;;;;;;24.92;45.11;100207.55;154025;1101;103127;-73
2021/06/26 12:46:46;;;;;;;4.57;3.10;;;;;;;24.86;45.27;100211.28;153992;1095;103656;-73
2021/06/26 12:50:01;;;;;;;4.35;3.50;;;;;;;24.95;46.64;100204.33;153937;1095;103141;-72
2021/06/26 12:53:04;;;;;;;4.33;3.50;;;;;;;24.96;46.77;100207.88;154018;1096;103203;-73
2021/06/26 12:56:11;;;;;;;4.10;3.60;;;;;;;25.06;44.82;100200.68;153974;1096;103196;-73
2021/06/26 12:59:15;;;;;;;4.10;3.70;;;;;;;24.95;46.14;100200.78;154037;1101;103150;-73
2021/06/26 13:02:19;;;;;;;4.20;3.80;;;;;;;24.91;46.95;100203.18;153961;1095;103131;-73
2021/06/26 13:05:24;;;;;;;4.63;4.03;;;;;;;25.02;46.22;100209.60;153966;1101;103198;-73
2021/06/26 13:08:27;;;;;;;3.97;3.53;;;;;;;25.11;46.38;100196.37;154081;1101;103240;-75
2021/06/26 13:11:32;;;;;;;3.45;3.15;;;;;;;25.09;45.36;100205.63;153966;1095;103322;-73
2021/06/26 13:14:39;;;;;;;3.97;3.57;;;;;;;25.07;46.50;100196.86;154018;1101;103237;-73
2021/06/26 13:17:42;;;;;;;3.10;2.80;;;;;;;25.14;46.04;100193.16;154016;1101;103250;-73
2021/06/26 13:20:45;;;;;;;3.20;2.67;;;;;;;25.17;46.02;100189.90;153908;1096;103490;-74
2021/06/26 13:23:48;;;;;;;3.70;2.90;;;;;;;25.23;46.48;100192.50;154008;1101;103150;-73
2021/06/26 13:26:51;;;;;;;3.13;2.83;;;;;;;25.26;46.96;100194.70;154078;1095;103196;-72
2021/06/26 13:29:54;;;;;;;4.30;3.20;;;;;;;25.27;43.77;100187.36;154049;1101;103129;-73
2021/06/26 13:32:58;;;;;;;3.30;3.00;;;;;;;25.21;43.99;100183.70;153971;1101;103203;-73
2021/06/26 13:36:01;;;;;;;4.60;2.80;;;;;;;25.19;44.79;100183.13;153988;1101;104063;-74
2021/06/26 13:39:06;;;;;;;3.33;2.77;;;;;;;25.14;43.48;100179.50;154083;1101;103142;-72
2021/06/26 13:42:10;;;;;;;2.93;2.70;;;;;;;25.02;44.23;100183.16;153995;1101;103398;-73
2021/06/26 13:45:13;;;;;;;3.10;2.80;;;;;;;25.01;44.18;100178.76;153940;1101;103224;-71
2021/06/26 13:48:16;;;;;;;2.70;2.50;;;;;;;24.96;44.23;100173.24;153978;1096;103237;-72
2021/06/26 13:51:21;;;;;;;3.20;2.90;;;;;;;24.90;44.24;100168.77;153976;1101;103266;-71
2021/06/26 13:54:24;;;;;;;3.80;2.90;;;;;;;24.90;44.58;100163.30;154083;1096;103291;-72